sensor_id;sensor_type;location;lat;lon;timestamp;pressure;altitude;pressure_sealevel;temperature;humidity
51876;BME280;34054;52.100;5.116;2023-07-13T00:00:29;101184.34;;;17.72;100.00
51876;BME280;34054;52.100;5.116;2023-07-13T00:01:03;101178.84;;;17.72;100.00
51876;BME280;34054;52.100;5.116;2023-07-13T00:01:35;101178.03;;;17.72;100.00
51876;BME280;34054;52.100;5.116;2023-07-13T00:02:07;101180.63;;;17.63;100.00
51876;BME280;34054;52.100;5.116;2023-07-13T00:02:40;101182.72;;;17.71;100.00
51876;BME280;34054;52.100;5.116;2023-07-13T00:03:13;101184.84;;;17.74;100.00
51876;BME280;34054;52.100;5.116;2023-07-13T00:03:45;101186.78;;;17.74;100.00
51876;BME280;34054;52.100;5.116;2023-07-13T00:04:18;101190.66;;;17.73;100.00
51876;BME280;34054;52.100;5.116;2023-07-13T00:04:52;101186.56;;;17.70;100.00
51876;BME280;34054;52.100;5.116;2023-07-13T00:05:24;101179.56;;;17.59;100.00
51876;BME280;34054;52.100;5.116;2023-07-13T00:05:59;101180.41;;;17.60;100.00
51876;BME280;34054;52.100;5.116;2023-07-13T00:06:32;101177.72;;;17.54;100.00
51876;BME280;34054;52.100;5.116;2023-07-13T00:07:07;101172.09;;;17.46;100.00
51876;BME280;34054;52.100;5.116;2023-07-13T00:07:39;101184.03;;;17.55;100.00
51876;BME280;34054;52.100;5.116;2023-07-13T00:08:10;101183.38;;;17.63;100.00
51876;BME280;34054;52.100;5.116;2023-07-13T00:08:42;101177.13;;;17.57;100.00
51876;BME280;34054;52.100;5.116;2023-07-13T00:09:16;101182.75;;;17.66;100.00
51876;BME280;34054;52.100;5.116;2023-07-13T00:09:49;101176.25;;;17.62;100.00
51876;BME280;34054;52.100;5.116;2023-07-13T00:10:21;101180.63;;;17.63;100.00
51876;BME280;34054;52.100;5.116;2023-07-13T00:10:54;101181.50;;;17.58;100.00
51876;BME280;34054;52.100;5.116;2023-07-13T00:11:27;101180.19;;;17.56;100.00
51876;BME280;34054;52.100;5.116;2023-07-13T00:11:59;101177.94;;;17.58;100.00
51876;BME280;34054;52.100;5.116;2023-07-13T00:12:34;101172.91;;;17.65;100.00
51876;BME280;34054;52.100;5.116;2023-07-13T00:13:07;101174.91;;;17.60;100.00
51876;BME280;34054;52.100;5.116;2023-07-13T00:13:39;101164.88;;;17.50;100.00
51876;BME280;34054;52.100;5.116;2023-07-13T00:14:11;101170.88;;;17.71;100.00
51876;BME280;34054;52.100;5.116;2023-07-13T00:14:44;101162.59;;;17.76;100.00
51876;BME280;34054;52.100;5.116;2023-07-13T00:15:19;101173.34;;;17.92;100.00
51876;BME280;34054;52.100;5.116;2023-07-13T00:15:54;101169.84;;;17.86;100.00
51876;BME280;34054;52.100;5.116;2023-07-13T00:16:27;101171.50;;;17.68;100.00
51876;BME280;34054;52.100;5.116;2023-07-13T00:16:59;101178.25;;;17.56;100.00
51876;BME280;34054;52.100;5.116;2023-07-13T00:17:31;101176.34;;;17.57;100.00
51876;BME280;34054;52.100;5.116;2023-07-13T00:18:03;101181.34;;;17.50;100.00
51876;BME280;34054;52.100;5.116;2023-07-13T00:18:35;101174.00;;;17.45;100.00
51876;BME280;34054;52.100;5.116;2023-07-13T00:19:09;101177.94;;;17.58;100.00
51876;BME280;34054;52.100;5.116;2023-07-13T00:19:42;101183.28;;;17.68;100.00
51876;BME280;34054;52.100;5.116;2023-07-13T00:20:14;101166.66;;;17.79;100.00
51876;BME280;34054;52.100;5.116;2023-07-13T00:20:47;101164.56;;;17.89;100.00
51876;BME280;34054;52.100;5.116;2023-07-13T00:21:19;101172.91;;;17.84;100.00
51876;BME280;34054;52.100;5.116;2023-07-13T00:21:51;101170.97;;;17.85;100.00
51876;BME280;34054;52.100;5.116;2023-07-13T00:22:27;101172.91;;;17.84;100.00
51876;BME280;34054;52.100;5.116;2023-07-13T00:22:59;101169.31;;;17.84;100.00
51876;BME280;34054;52.100;5.116;2023-07-13T00:23:31;101170.59;;;17.92;100.00
51876;BME280;34054;52.100;5.116;2023-07-13T00:24:05;101168.81;;;17.82;100.00
51876;BME280;34054;52.100;5.116;2023-07-13T00:24:38;101179.53;;;17.64;100.00
51876;BME280;34054;52.100;5.116;2023-07-13T00:25:12;101176.78;;;17.64;100.00
51876;BME280;34054;52.100;5.116;2023-07-13T00:25:44;101171.47;;;17.49;100.00
51876;BME280;34054;52.100;5.116;2023-07-13T00:26:16;101172.88;;;17.46;100.00
51876;BME280;34054;52.100;5.116;2023-07-13T00:26:51;101177.34;;;17.42;100.00
51876;BME280;34054;52.100;5.116;2023-07-13T00:27:23;101169.38;;;17.40;100.00
51876;BME280;34054;52.100;5.116;2023-07-13T00:27:57;101169.34;;;17.46;100.00
51876;BME280;34054;52.100;5.116;2023-07-13T00:28:30;101174.81;;;17.46;100.00
51876;BME280;34054;52.100;5.116;2023-07-13T00:29:03;101181.97;;;17.47;100.00
51876;BME280;34054;52.100;5.116;2023-07-13T00:29:34;101173.41;;;17.48;100.00
51876;BME280;34054;52.100;5.116;2023-07-13T00:30:07;101176.69;;;17.50;100.00
51876;BME280;34054;52.100;5.116;2023-07-13T00:30:41;101177.56;;;17.46;100.00
51876;BME280;34054;52.100;5.116;2023-07-13T00:31:13;101175.34;;;17.48;100.00
51876;BME280;34054;52.100;5.116;2023-07-13T00:31:45;101172.38;;;17.44;100.00
51876;BME280;34054;52.100;5.116;2023-07-13T00:32:17;101184.47;;;17.62;100.00
51876;BME280;34054;52.100;5.116;2023-07-13T00:32:50;101179.56;;;17.59;100.00
51876;BME280;34054;52.100;5.116;2023-07-13T00:33:22;101184.13;;;17.69;100.00
51876;BME280;34054;52.100;5.116;2023-07-13T00:33:54;101181.59;;;17.72;100.00
51876;BME280;34054;52.100;5.116;2023-07-13T00:34:26;101183.94;;;17.79;100.00
51876;BME280;34054;52.100;5.116;2023-07-13T00:34:58;101181.88;;;17.71;100.00
51876;BME280;34054;52.100;5.116;2023-07-13T00:35:31;101181.88;;;17.71;100.00
51876;BME280;34054;52.100;5.116;2023-07-13T00:36:04;101180.19;;;17.75;100.00
51876;BME280;34054;52.100;5.116;2023-07-13T00:36:37;101186.19;;;17.77;100.00
51876;BME280;34054;52.100;5.116;2023-07-13T00:37:09;101184.78;;;17.80;100.00
51876;BME280;34054;52.100;5.116;2023-07-13T00:37:41;101180.09;;;17.61;100.00
51876;BME280;34054;52.100;5.116;2023-07-13T00:38:13;101175.34;;;17.67;100.00
51876;BME280;34054;52.100;5.116;2023-07-13T00:38:46;101181.56;;;17.53;100.00
51876;BME280;34054;52.100;5.116;2023-07-13T00:39:18;101165.63;;;17.36;100.00
51876;BME280;34054;52.100;5.116;2023-07-13T00:39:52;101176.69;;;17.50;100.00
51876;BME280;34054;52.100;5.116;2023-07-13T00:40:23;101180.00;;;17.47;100.00
51876;BME280;34054;52.100;5.116;2023-07-13T00:40:56;101172.00;;;17.51;100.00
51876;BME280;34054;52.100;5.116;2023-07-13T00:41:28;101173.84;;;17.55;100.00
51876;BME280;34054;52.100;5.116;2023-07-13T00:42:03;101174.75;;;17.51;100.00
51876;BME280;34054;52.100;5.116;2023-07-13T00:42:36;101170.53;;;17.39;100.00
51876;BME280;34054;52.100;5.116;2023-07-13T00:43:12;101164.50;;;17.37;100.00
51876;BME280;34054;52.100;5.116;2023-07-13T00:43:46;101171.09;;;17.36;100.00
51876;BME280;34054;52.100;5.116;2023-07-13T00:44:20;101171.09;;;17.36;100.00
51876;BME280;34054;52.100;5.116;2023-07-13T00:45:07;101171.91;;;17.37;100.00
51876;BME280;34054;52.100;5.116;2023-07-13T00:46:21;101153.97;;;17.25;100.00
51876;BME280;34054;52.100;5.116;2023-07-13T00:46:56;101169.16;;;17.37;100.00
51876;BME280;34054;52.100;5.116;2023-07-13T00:47:29;101167.25;;;17.37;100.00
51876;BME280;34054;52.100;5.116;2023-07-13T00:48:01;101165.53;;;17.41;100.00
51876;BME280;34054;52.100;5.116;2023-07-13T00:48:34;101173.78;;;17.41;100.00
51876;BME280;34054;52.100;5.116;2023-07-13T00:49:13;101167.69;;;17.25;100.00
51876;BME280;34054;52.100;5.116;2023-07-13T00:49:49;101173.81;;;17.17;100.00
51876;BME280;34054;52.100;5.116;2023-07-13T00:50:22;101168.56;;;17.21;100.00
51876;BME280;34054;52.100;5.116;2023-07-13T00:50:57;101163.34;;;17.19;100.00
51876;BME280;34054;52.100;5.116;2023-07-13T00:51:36;101179.09;;;17.14;100.00
51876;BME280;34054;52.100;5.116;2023-07-13T00:52:12;101177.22;;;17.09;100.00
51876;BME280;34054;52.100;5.116;2023-07-13T00:52:47;101177.94;;;17.15;100.00
51876;BME280;34054;52.100;5.116;2023-07-13T00:53:22;101175.47;;;17.18;100.00
51876;BME280;34054;52.100;5.116;2023-07-13T00:53:57;101181.53;;;17.15;100.00
51876;BME280;34054;52.100;5.116;2023-07-13T00:54:35;101168.84;;;17.19;100.00
51876;BME280;34054;52.100;5.116;2023-07-13T00:55:11;101170.66;;;17.29;100.00
51876;BME280;34054;52.100;5.116;2023-07-13T00:55:46;101172.56;;;17.29;100.00
51876;BME280;34054;52.100;5.116;2023-07-13T00:56:20;101168.34;;;17.17;100.00
51876;BME280;34054;52.100;5.116;2023-07-13T00:56:56;101183.22;;;17.11;100.00
51876;BME280;34054;52.100;5.116;2023-07-13T00:57:33;101176.91;;;17.10;100.00
51876;BME280;34054;52.100;5.116;2023-07-13T00:58:05;101186.78;;;17.11;100.00
51876;BME280;34054;52.100;5.116;2023-07-13T00:58:38;101184.16;;;17.01;100.00
51876;BME280;34054;52.100;5.116;2023-07-13T00:59:12;101177.50;;;17.07;100.00
51876;BME280;34054;52.100;5.116;2023-07-13T00:59:49;101182.34;;;17.16;100.00
51876;BME280;34054;52.100;5.116;2023-07-13T01:00:27;101180.81;;;17.29;100.00
51876;BME280;34054;52.100;5.116;2023-07-13T01:01:00;101182.28;;;17.21;100.00
51876;BME280;34054;52.100;5.116;2023-07-13T01:01:32;101188.31;;;17.23;100.00
51876;BME280;34054;52.100;5.116;2023-07-13T01:02:08;101179.53;;;17.21;100.00
51876;BME280;34054;52.100;5.116;2023-07-13T01:02:42;101180.94;;;17.18;100.00
51876;BME280;34054;52.100;5.116;2023-07-13T01:03:17;101183.31;;;17.25;100.00
51876;BME280;34054;52.100;5.116;2023-07-13T01:03:50;101176.72;;;17.26;100.00
51876;BME280;34054;52.100;5.116;2023-07-13T01:04:24;101179.88;;;17.14;100.00
51876;BME280;34054;52.100;5.116;2023-07-13T01:04:56;101182.56;;;17.19;100.00
51876;BME280;34054;52.100;5.116;2023-07-13T01:05:28;101193.25;;;17.21;100.00
51876;BME280;34054;52.100;5.116;2023-07-13T01:06:00;101173.44;;;17.24;100.00
51876;BME280;34054;52.100;5.116;2023-07-13T01:06:34;101180.88;;;17.23;100.00
51876;BME280;34054;52.100;5.116;2023-07-13T01:07:06;101168.56;;;17.21;100.00
51876;BME280;34054;52.100;5.116;2023-07-13T01:07:38;101181.03;;;17.32;100.00
51876;BME280;34054;52.100;5.116;2023-07-13T01:08:11;101173.66;;;17.27;100.00
51876;BME280;34054;52.100;5.116;2023-07-13T01:08:44;101176.81;;;17.40;100.00
51876;BME280;34054;52.100;5.116;2023-07-13T01:09:16;101179.47;;;17.45;100.00
51876;BME280;34054;52.100;5.116;2023-07-13T01:09:49;101183.13;;;17.40;100.00
51876;BME280;34054;52.100;5.116;2023-07-13T01:10:23;101178.28;;;17.32;100.00
51876;BME280;34054;52.100;5.116;2023-07-13T01:10:57;101186.50;;;17.32;100.00
51876;BME280;34054;52.100;5.116;2023-07-13T01:11:29;101191.66;;;17.15;100.00
51876;BME280;34054;52.100;5.116;2023-07-13T01:12:01;101180.53;;;17.06;100.00
51876;BME280;34054;52.100;5.116;2023-07-13T01:12:35;101185.72;;;17.07;100.00
51876;BME280;34054;52.100;5.116;2023-07-13T01:13:09;101176.38;;;17.08;100.00
51876;BME280;34054;52.100;5.116;2023-07-13T01:13:42;101187.69;;;17.26;100.00
51876;BME280;34054;52.100;5.116;2023-07-13T01:14:15;101194.28;;;17.25;100.00
51876;BME280;34054;52.100;5.116;2023-07-13T01:14:47;101191.28;;;17.26;100.00
51876;BME280;34054;52.100;5.116;2023-07-13T01:15:36;101193.50;;;17.24;100.00
51876;BME280;34054;52.100;5.116;2023-07-13T01:16:15;101177.59;;;17.21;100.00
51876;BME280;34054;52.100;5.116;2023-07-13T01:16:54;101192.31;;;17.06;100.00
51876;BME280;34054;52.100;5.116;2023-07-13T01:17:33;101195.94;;;17.02;100.00
51876;BME280;34054;52.100;5.116;2023-07-13T01:18:07;101195.06;;;17.06;100.00
51876;BME280;34054;52.100;5.116;2023-07-13T01:18:41;101195.06;;;17.06;100.00
51876;BME280;34054;52.100;5.116;2023-07-13T01:19:22;101190.63;;;17.10;100.00
51876;BME280;34054;52.100;5.116;2023-07-13T01:20:08;101193.19;;;17.02;100.00
51876;BME280;34054;52.100;5.116;2023-07-13T01:20:40;101188.63;;;16.92;100.00
51876;BME280;34054;52.100;5.116;2023-07-13T01:21:15;101192.47;;;16.91;100.00
51876;BME280;34054;52.100;5.116;2023-07-13T01:21:50;101188.63;;;16.92;100.00
51876;BME280;34054;52.100;5.116;2023-07-13T01:22:23;101187.25;;;16.94;100.00
51876;BME280;34054;52.100;5.116;2023-07-13T01:22:57;101181.97;;;16.98;100.00
51876;BME280;34054;52.100;5.116;2023-07-13T01:23:32;101177.41;;;16.88;100.00
51876;BME280;34054;52.100;5.116;2023-07-13T01:24:05;101185.88;;;16.92;100.00
51876;BME280;34054;52.100;5.116;2023-07-13T01:24:38;101187.91;;;16.81;100.00
51876;BME280;34054;52.100;5.116;2023-07-13T01:25:11;101173.44;;;16.75;100.00
51876;BME280;34054;52.100;5.116;2023-07-13T01:25:43;101180.94;;;16.94;100.00
51876;BME280;34054;52.100;5.116;2023-07-13T01:26:15;101177.91;;;16.95;100.00
51876;BME280;34054;52.100;5.116;2023-07-13T01:26:49;101185.78;;;17.02;100.00
51876;BME280;34054;52.100;5.116;2023-07-13T01:27:22;101172.06;;;17.02;100.00
51876;BME280;34054;52.100;5.116;2023-07-13T01:27:56;101190.00;;;17.19;100.00
51876;BME280;34054;52.100;5.116;2023-07-13T01:28:28;101185.84;;;17.21;100.00
51876;BME280;34054;52.100;5.116;2023-07-13T01:29:01;101187.25;;;17.19;100.00
51876;BME280;34054;52.100;5.116;2023-07-13T01:29:35;101184.16;;;17.25;100.00
51876;BME280;34054;52.100;5.116;2023-07-13T01:30:13;101190.97;;;17.28;100.00
51876;BME280;34054;52.100;5.116;2023-07-13T01:30:45;101185.72;;;17.32;100.00
51876;BME280;34054;52.100;5.116;2023-07-13T01:31:18;101193.19;;;17.26;100.00
51876;BME280;34054;52.100;5.116;2023-07-13T01:31:50;101191.06;;;17.23;100.00
51876;BME280;34054;52.100;5.116;2023-07-13T01:32:23;101196.00;;;17.21;100.00
51876;BME280;34054;52.100;5.116;2023-07-13T01:32:57;101199.66;;;17.11;100.00
51876;BME280;34054;52.100;5.116;2023-07-13T01:33:29;101194.56;;;17.04;100.00
51876;BME280;34054;52.100;5.116;2023-07-13T01:34:01;101196.94;;;17.11;100.00
51876;BME280;34054;52.100;5.116;2023-07-13T01:34:33;101186.91;;;17.01;100.00
51876;BME280;34054;52.100;5.116;2023-07-13T01:35:06;101194.31;;;17.01;100.00
51876;BME280;34054;52.100;5.116;2023-07-13T01:35:38;101196.00;;;16.97;100.00
51876;BME280;34054;52.100;5.116;2023-07-13T01:36:11;101193.44;;;17.05;100.00
51876;BME280;34054;52.100;5.116;2023-07-13T01:36:46;101148.22;;;16.73;100.00
51876;BME280;34054;52.100;5.116;2023-07-13T01:37:17;101193.50;;;17.00;100.00
51876;BME280;34054;52.100;5.116;2023-07-13T01:37:49;101179.84;;;16.95;100.00
51876;BME280;34054;52.100;5.116;2023-07-13T01:38:22;101193.06;;;17.12;100.00
51876;BME280;34054;52.100;5.116;2023-07-13T01:38:54;101201.28;;;17.17;100.00
51876;BME280;34054;52.100;5.116;2023-07-13T01:39:26;101190.00;;;17.19;100.00
51876;BME280;34054;52.100;5.116;2023-07-13T01:39:59;101198.53;;;17.17;100.00
51876;BME280;34054;52.100;5.116;2023-07-13T01:40:31;101187.59;;;17.12;100.00
51876;BME280;34054;52.100;5.116;2023-07-13T01:41:04;101198.28;;;17.14;100.00
51876;BME280;34054;52.100;5.116;2023-07-13T01:41:36;101198.22;;;17.19;100.00
51876;BME280;34054;52.100;5.116;2023-07-13T01:42:09;101199.28;;;17.23;100.00
51876;BME280;34054;52.100;5.116;2023-07-13T01:42:41;101190.09;;;17.33;100.00
51876;BME280;34054;52.100;5.116;2023-07-13T01:43:13;101198.91;;;17.30;100.00
51876;BME280;34054;52.100;5.116;2023-07-13T01:43:45;101196.88;;;17.16;100.00
51876;BME280;34054;52.100;5.116;2023-07-13T01:44:18;101202.19;;;17.07;100.00
51876;BME280;34054;52.100;5.116;2023-07-13T01:44:50;101190.03;;;16.89;100.00
51876;BME280;34054;52.100;5.116;2023-07-13T01:45:22;101194.69;;;16.89;100.00
51876;BME280;34054;52.100;5.116;2023-07-13T01:45:53;101195.69;;;16.98;100.00
51876;BME280;34054;52.100;5.116;2023-07-13T01:46:26;101197.94;;;16.96;100.00
51876;BME280;34054;52.100;5.116;2023-07-13T01:46:58;101199.28;;;16.99;100.00
51876;BME280;34054;52.100;5.116;2023-07-13T01:47:30;101196.03;;;16.91;100.00
51876;BME280;34054;52.100;5.116;2023-07-13T01:48:02;101202.94;;;16.89;100.00
51876;BME280;34054;52.100;5.116;2023-07-13T01:48:37;101201.06;;;16.84;100.00
51876;BME280;34054;52.100;5.116;2023-07-13T01:49:09;101199.13;;;16.85;100.00
51876;BME280;34054;52.100;5.116;2023-07-13T01:49:41;101196.84;;;16.92;100.00
51876;BME280;34054;52.100;5.116;2023-07-13T01:50:14;101202.31;;;16.97;100.00
51876;BME280;34054;52.100;5.116;2023-07-13T01:50:47;101203.19;;;16.87;100.00
51876;BME280;34054;52.100;5.116;2023-07-13T01:51:19;101198.59;;;16.83;100.00
51876;BME280;34054;52.100;5.116;2023-07-13T01:51:53;101206.53;;;16.84;100.00
51876;BME280;34054;52.100;5.116;2023-07-13T01:52:26;101192.09;;;16.73;100.00
51876;BME280;34054;52.100;5.116;2023-07-13T01:52:58;101208.56;;;16.73;100.00
51876;BME280;34054;52.100;5.116;2023-07-13T01:53:29;101207.19;;;16.76;100.00
51876;BME280;34054;52.100;5.116;2023-07-13T01:54:01;101195.91;;;16.77;100.00
51876;BME280;34054;52.100;5.116;2023-07-13T01:54:34;101202.66;;;16.85;100.00
51876;BME280;34054;52.100;5.116;2023-07-13T01:55:07;101205.78;;;16.78;100.00
51876;BME280;34054;52.100;5.116;2023-07-13T01:55:39;101199.81;;;16.71;100.00
51876;BME280;34054;52.100;5.116;2023-07-13T01:56:11;101191.63;;;16.66;100.00
51876;BME280;34054;52.100;5.116;2023-07-13T01:56:44;101203.38;;;16.72;100.00
51876;BME280;34054;52.100;5.116;2023-07-13T01:57:16;101207.19;;;16.76;100.00
51876;BME280;34054;52.100;5.116;2023-07-13T01:57:48;101204.13;;;16.77;100.00
51876;BME280;34054;52.100;5.116;2023-07-13T01:58:20;101202.88;;;16.64;100.00
51876;BME280;34054;52.100;5.116;2023-07-13T01:58:53;101203.03;;;16.49;100.00
51876;BME280;34054;52.100;5.116;2023-07-13T01:59:25;101203.94;;;16.39;100.00
51876;BME280;34054;52.100;5.116;2023-07-13T01:59:57;101202.50;;;16.47;100.00
51876;BME280;34054;52.100;5.116;2023-07-13T02:00:29;101209.56;;;16.53;100.00
51876;BME280;34054;52.100;5.116;2023-07-13T02:01:02;101216.00;;;16.68;100.00
51876;BME280;34054;52.100;5.116;2023-07-13T02:01:34;101207.38;;;16.55;100.00
51876;BME280;34054;52.100;5.116;2023-07-13T02:02:06;101206.56;;;16.55;100.00
51876;BME280;34054;52.100;5.116;2023-07-13T02:02:38;101192.88;;;16.49;100.00
51876;BME280;34054;52.100;5.116;2023-07-13T02:03:11;101208.31;;;16.70;100.00
51876;BME280;34054;52.100;5.116;2023-07-13T02:03:43;101204.75;;;16.69;100.00
51876;BME280;34054;52.100;5.116;2023-07-13T02:04:14;101206.75;;;16.63;100.00
51876;BME280;34054;52.100;5.116;2023-07-13T02:04:46;101206.69;;;16.69;100.00
51876;BME280;34054;52.100;5.116;2023-07-13T02:05:19;101200.44;;;16.63;100.00
51876;BME280;34054;52.100;5.116;2023-07-13T02:05:51;101209.16;;;16.70;100.00
51876;BME280;34054;52.100;5.116;2023-07-13T02:06:22;101205.19;;;16.82;100.00
51876;BME280;34054;52.100;5.116;2023-07-13T02:06:56;101196.47;;;16.74;100.00
51876;BME280;34054;52.100;5.116;2023-07-13T02:07:28;101196.63;;;16.59;100.00
51876;BME280;34054;52.100;5.116;2023-07-13T02:08:00;101207.03;;;16.62;100.00
51876;BME280;34054;52.100;5.116;2023-07-13T02:08:32;101203.53;;;16.56;100.00
51876;BME280;34054;52.100;5.116;2023-07-13T02:09:05;101211.69;;;16.61;100.00
51876;BME280;34054;52.100;5.116;2023-07-13T02:09:37;101191.78;;;16.51;100.00
51876;BME280;34054;52.100;5.116;2023-07-13T02:10:10;101192.84;;;16.55;100.00
51876;BME280;34054;52.100;5.116;2023-07-13T02:10:42;101187.41;;;16.49;100.00
51876;BME280;34054;52.100;5.116;2023-07-13T02:11:15;101194.19;;;16.57;100.00
51876;BME280;34054;52.100;5.116;2023-07-13T02:11:46;101188.97;;;16.56;100.00
51876;BME280;34054;52.100;5.116;2023-07-13T02:12:19;101204.56;;;16.60;100.00
51876;BME280;34054;52.100;5.116;2023-07-13T02:12:51;101205.94;;;16.63;100.00
51876;BME280;34054;52.100;5.116;2023-07-13T02:13:23;101202.81;;;16.70;100.00
51876;BME280;34054;52.100;5.116;2023-07-13T02:13:56;101218.94;;;16.76;100.00
51876;BME280;34054;52.100;5.116;2023-07-13T02:14:28;101210.53;;;16.68;100.00
51876;BME280;34054;52.100;5.116;2023-07-13T02:15:00;101209.41;;;16.69;100.00
51876;BME280;34054;52.100;5.116;2023-07-13T02:15:31;101217.38;;;16.70;100.00
51876;BME280;34054;52.100;5.116;2023-07-13T02:16:05;101213.78;;;16.70;100.00
51876;BME280;34054;52.100;5.116;2023-07-13T02:16:37;101217.06;;;16.72;100.00
51876;BME280;34054;52.100;5.116;2023-07-13T02:17:09;101215.97;;;16.73;100.00
51876;BME280;34054;52.100;5.116;2023-07-13T02:17:41;101215.44;;;16.71;100.00
51876;BME280;34054;52.100;5.116;2023-07-13T02:18:14;101204.06;;;16.58;100.00
51876;BME280;34054;52.100;5.116;2023-07-13T02:18:48;101222.56;;;16.72;100.00
51876;BME280;34054;52.100;5.116;2023-07-13T02:19:23;101217.66;;;16.69;100.00
51876;BME280;34054;52.100;5.116;2023-07-13T02:19:55;101214.03;;;16.73;100.00
51876;BME280;34054;52.100;5.116;2023-07-13T02:20:28;101215.50;;;16.66;100.00
51876;BME280;34054;52.100;5.116;2023-07-13T02:20:59;101220.91;;;16.71;100.00
51876;BME280;34054;52.100;5.116;2023-07-13T02:21:31;101224.53;;;16.66;100.00
51876;BME280;34054;52.100;5.116;2023-07-13T02:22:06;101210.34;;;16.59;100.00
51876;BME280;34054;52.100;5.116;2023-07-13T02:22:38;101197.72;;;16.63;100.00
51876;BME280;34054;52.100;5.116;2023-07-13T02:23:10;101220.69;;;16.67;100.00
51876;BME280;34054;52.100;5.116;2023-07-13T02:23:42;101222.31;;;16.68;100.00
51876;BME280;34054;52.100;5.116;2023-07-13T02:24:15;101219.03;;;16.66;100.00
51876;BME280;34054;52.100;5.116;2023-07-13T02:24:48;101222.22;;;16.49;100.00
51876;BME280;34054;52.100;5.116;2023-07-13T02:25:20;101220.00;;;16.51;100.00
51876;BME280;34054;52.100;5.116;2023-07-13T02:25:54;101223.81;;;16.55;100.00
51876;BME280;34054;52.100;5.116;2023-07-13T02:26:27;101216.16;;;16.52;100.00
51876;BME280;34054;52.100;5.116;2023-07-13T02:27:00;101215.03;;;16.58;100.00
51876;BME280;34054;52.100;5.116;2023-07-13T02:27:32;101214.16;;;16.63;100.00
51876;BME280;34054;52.100;5.116;2023-07-13T02:28:04;101217.94;;;16.67;100.00
51876;BME280;34054;52.100;5.116;2023-07-13T02:28:35;101202.91;;;16.59;100.00
51876;BME280;34054;52.100;5.116;2023-07-13T02:29:08;101221.59;;;16.57;100.00
51876;BME280;34054;52.100;5.116;2023-07-13T02:29:40;101223.59;;;16.46;100.00
51876;BME280;34054;52.100;5.116;2023-07-13T02:30:12;101222.50;;;16.47;100.00
51876;BME280;34054;52.100;5.116;2023-07-13T02:30:44;101212.38;;;16.48;100.00
51876;BME280;34054;52.100;5.116;2023-07-13T02:31:16;101226.34;;;16.46;100.00
51876;BME280;34054;52.100;5.116;2023-07-13T02:31:48;101224.38;;;16.52;100.00
51876;BME280;34054;52.100;5.116;2023-07-13T02:32:20;101226.06;;;16.48;100.00
51876;BME280;34054;52.100;5.116;2023-07-13T02:32:52;101215.66;;;16.50;100.00
51876;BME280;34054;52.100;5.116;2023-07-13T02:33:25;101219.97;;;16.56;100.00
51876;BME280;34054;52.100;5.116;2023-07-13T02:33:56;101220.28;;;16.55;100.00
51876;BME280;34054;52.100;5.116;2023-07-13T02:34:29;101226.00;;;16.53;100.00
51876;BME280;34054;52.100;5.116;2023-07-13T02:35:01;101215.66;;;16.50;100.00
51876;BME280;34054;52.100;5.116;2023-07-13T02:35:34;101213.72;;;16.51;100.00
51876;BME280;34054;52.100;5.116;2023-07-13T02:36:07;101215.34;;;16.52;100.00
51876;BME280;34054;52.100;5.116;2023-07-13T02:36:39;101229.09;;;16.46;100.00
51876;BME280;34054;52.100;5.116;2023-07-13T02:37:12;101214.28;;;16.47;100.00
51876;BME280;34054;52.100;5.116;2023-07-13T02:37:45;101210.72;;;16.47;100.00
51876;BME280;34054;52.100;5.116;2023-07-13T02:38:16;101216.50;;;16.45;100.00
51876;BME280;34054;52.100;5.116;2023-07-13T02:38:49;101225.28;;;16.42;100.00
51876;BME280;34054;52.100;5.116;2023-07-13T02:39:21;101216.22;;;16.47;100.00
51876;BME280;34054;52.100;5.116;2023-07-13T02:39:54;101227.09;;;16.57;100.00
51876;BME280;34054;52.100;5.116;2023-07-13T02:40:25;101223.59;;;16.46;100.00
51876;BME280;34054;52.100;5.116;2023-07-13T02:40:57;101224.97;;;16.49;100.00
51876;BME280;34054;52.100;5.116;2023-07-13T02:41:30;101227.13;;;16.52;100.00
51876;BME280;34054;52.100;5.116;2023-07-13T02:42:03;101224.50;;;16.42;100.00
51876;BME280;34054;52.100;5.116;2023-07-13T02:42:36;101217.31;;;16.46;100.00
51876;BME280;34054;52.100;5.116;2023-07-13T02:43:08;101228.81;;;16.48;100.00
51876;BME280;34054;52.100;5.116;2023-07-13T02:43:40;101216.75;;;16.49;100.00
51876;BME280;34054;52.100;5.116;2023-07-13T02:44:12;101224.22;;;16.68;100.00
51876;BME280;34054;52.100;5.116;2023-07-13T02:44:44;101224.69;;;16.51;100.00
51876;BME280;34054;52.100;5.116;2023-07-13T02:45:17;101228.22;;;16.51;100.00
51876;BME280;34054;52.100;5.116;2023-07-13T02:45:49;101230.16;;;16.51;100.00
51876;BME280;34054;52.100;5.116;2023-07-13T02:46:21;101229.69;;;16.43;100.00
51876;BME280;34054;52.100;5.116;2023-07-13T02:46:53;101224.69;;;16.51;100.00
51876;BME280;34054;52.100;5.116;2023-07-13T02:47:26;101221.06;;;16.55;100.00
51876;BME280;34054;52.100;5.116;2023-07-13T02:47:58;101223.28;;;16.53;100.00
51876;BME280;34054;52.100;5.116;2023-07-13T02:48:30;101228.50;;;16.49;100.00
51876;BME280;34054;52.100;5.116;2023-07-13T02:49:02;101195.22;;;16.32;100.00
51876;BME280;34054;52.100;5.116;2023-07-13T02:49:35;101225.69;;;16.60;100.00
51876;BME280;34054;52.100;5.116;2023-07-13T02:50:08;101223.03;;;16.49;100.00
51876;BME280;34054;52.100;5.116;2023-07-13T02:50:40;101223.00;;;16.55;100.00
51876;BME280;34054;52.100;5.116;2023-07-13T02:51:13;101226.50;;;16.60;100.00
51876;BME280;34054;52.100;5.116;2023-07-13T02:51:44;101225.69;;;16.60;100.00